createdAt,value
2023-02-27T00:03:03.971Z,6.40
2023-02-27T00:08:06.512Z,8.93
2023-02-27T00:13:10.051Z,7.13
2023-02-27T00:18:13.966Z,7.03
2023-02-27T00:23:16.668Z,5.85
2023-02-27T00:28:19.190Z,6.35
2023-02-27T00:33:23.437Z,6.20
2023-02-27T00:38:26.732Z,6.00
2023-02-27T00:43:29.385Z,5.32
2023-02-27T00:48:33.287Z,7.40
2023-02-27T00:53:35.791Z,7.20
2023-02-27T00:58:38.301Z,6.40
2023-02-27T01:03:42.290Z,5.35
2023-02-27T01:08:44.986Z,6.53
2023-02-27T01:13:47.500Z,6.78
2023-02-27T01:18:51.328Z,6.65
2023-02-27T01:23:53.814Z,7.80
2023-02-27T01:28:56.331Z,7.30
2023-02-27T01:34:00.212Z,5.47
2023-02-27T01:39:02.716Z,6.53
2023-02-27T01:44:07.602Z,6.30
2023-02-27T01:49:16.912Z,8.98
2023-02-27T01:54:22.314Z,8.68
2023-02-27T01:59:25.042Z,6.70
2023-02-27T02:04:30.940Z,7.28
2023-02-27T02:09:38.499Z,7.53
2023-02-27T02:14:41.034Z,7.63
2023-02-27T02:20:17.745Z,7.00
2023-02-27T02:25:55.590Z,7.10
2023-02-27T02:31:30.774Z,5.35
2023-02-27T02:37:08.145Z,5.67
2023-02-27T02:42:20.805Z,6.78
2023-02-27T02:47:31.975Z,9.43
2023-02-27T02:52:45.699Z,6.30
2023-02-27T02:57:57.229Z,9.00
2023-02-27T03:03:06.408Z,8.63
2023-02-27T03:08:13.061Z,8.43
2023-02-27T03:13:24.945Z,7.03
2023-02-27T03:18:33.319Z,5.82
2023-02-27T03:23:42.301Z,7.05
2023-02-27T03:28:54.999Z,6.97
2023-02-27T03:34:05.480Z,8.38
2023-02-27T03:39:17.855Z,6.57
2023-02-27T03:44:28.987Z,10.97
2023-02-27T03:49:31.733Z,8.60
2023-02-27T03:54:37.675Z,8.48
2023-02-27T03:59:42.501Z,9.50
2023-02-27T04:04:45.103Z,10.40
2023-02-27T04:10:17.331Z,8.90
2023-02-27T04:15:29.696Z,12.85
2023-02-27T04:20:43.081Z,9.27
2023-02-27T04:25:55.456Z,13.18
2023-02-27T04:31:12.585Z,13.02
2023-02-27T04:36:24.222Z,8.80
2023-02-27T04:41:30.861Z,9.95
2023-02-27T04:46:37.179Z,8.75
2023-02-27T04:51:45.739Z,8.43
2023-02-27T04:56:53.574Z,8.93
2023-02-27T05:02:02.534Z,14.85
2023-02-27T05:07:09.376Z,8.80
2023-02-27T05:12:17.460Z,9.10
2023-02-27T05:17:26.705Z,11.13
2023-02-27T05:22:37.052Z,12.05
2023-02-27T05:27:43.266Z,10.03
2023-02-27T05:32:53.048Z,9.65
2023-02-27T05:38:04.967Z,10.40
2023-02-27T05:43:12.928Z,9.70
2023-02-27T05:48:21.758Z,11.27
2023-02-27T05:53:30.450Z,8.55
2023-02-27T05:58:37.657Z,9.15
2023-02-27T06:03:42.660Z,11.73
2023-02-27T06:08:46.985Z,10.13
2023-02-27T06:13:49.529Z,12.73
2023-02-27T06:18:53.335Z,14.47
2023-02-27T06:23:55.847Z,14.70
2023-02-27T06:28:58.340Z,13.85
2023-02-27T06:34:02.295Z,18.60
2023-02-27T06:39:05.951Z,20.37
2023-02-27T06:44:08.476Z,22.55
2023-02-27T06:49:12.276Z,15.38
2023-02-27T06:54:14.866Z,17.87
2023-02-27T06:59:17.336Z,17.45
2023-02-27T07:04:21.286Z,11.70
2023-02-27T07:09:24.062Z,15.90
2023-02-27T07:14:27.205Z,15.85
2023-02-27T07:19:31.703Z,16.80
2023-02-27T07:24:34.169Z,17.07
2023-02-27T07:29:36.712Z,20.13
2023-02-27T07:34:40.531Z,25.35
2023-02-27T07:39:43.054Z,23.42
2023-02-27T07:44:45.840Z,28.80
2023-02-27T07:49:49.646Z,27.20
2023-02-27T07:54:52.320Z,25.50
2023-02-27T07:59:54.784Z,30.33
2023-02-27T08:04:58.701Z,30.10
2023-02-27T08:10:01.234Z,26.05
2023-02-27T08:15:04.252Z,28.97
2023-02-27T08:20:11.271Z,25.47
2023-02-27T08:25:13.785Z,22.75
2023-02-27T08:30:16.904Z,23.83
2023-02-27T08:35:20.864Z,20.77
2023-02-27T08:40:23.393Z,18.45
2023-02-27T08:45:26.030Z,15.73
2023-02-27T08:50:29.903Z,20.00
2023-02-27T08:55:32.481Z,15.98
2023-02-27T09:00:34.973Z,16.90
2023-02-27T09:05:38.801Z,14.90
2023-02-27T09:10:41.974Z,6.50
2023-02-27T09:15:44.591Z,7.13
2023-02-27T09:20:50.999Z,6.47
2023-02-27T09:25:53.909Z,10.70
2023-02-27T09:30:56.926Z,7.20
2023-02-27T09:36:00.795Z,7.50
2023-02-27T09:41:05.208Z,6.80
2023-02-27T09:46:08.880Z,9.30
2023-02-27T09:51:14.945Z,4.90
2023-02-27T09:56:23.033Z,5.07
2023-02-27T10:01:30.377Z,4.77
2023-02-27T10:06:40.164Z,4.43
2023-02-27T10:11:52.973Z,4.43
2023-02-27T10:16:58.109Z,3.87
2023-02-27T10:22:07.157Z,5.55
2023-02-27T10:27:16.923Z,9.95
2023-02-27T10:32:25.287Z,4.70
2023-02-27T10:37:30.352Z,4.18
2023-02-27T10:42:37.148Z,5.45
2023-02-27T10:47:39.737Z,3.60
2023-02-27T10:52:51.400Z,4.87
2023-02-27T10:57:56.497Z,5.70
2023-02-27T11:02:59.328Z,4.47
2023-02-27T11:08:15.198Z,4.13
2023-02-27T11:13:21.599Z,3.78
2023-02-27T11:18:29.333Z,4.38
2023-02-27T11:23:33.861Z,3.20
2023-02-27T11:28:36.365Z,4.57
2023-02-27T11:33:41.682Z,3.75
2023-02-27T11:38:53.918Z,3.13
2023-02-27T11:43:58.815Z,3.30
2023-02-27T11:49:14.601Z,4.22
2023-02-27T11:54:34.696Z,4.07
2023-02-27T11:59:45.865Z,3.70
2023-02-27T12:04:52.443Z,3.30
2023-02-27T12:10:02.847Z,3.88
2023-02-27T12:15:17.091Z,5.20
2023-02-27T12:20:28.027Z,4.13
2023-02-27T12:25:46.325Z,3.47
2023-02-27T12:30:57.266Z,3.53
2023-02-27T12:36:03.533Z,4.57
2023-02-27T12:41:31.514Z,3.70
2023-02-27T12:46:44.491Z,4.95
2023-02-27T12:51:55.289Z,4.00
2023-02-27T12:57:10.657Z,3.95
2023-02-27T13:02:30.932Z,3.88
2023-02-27T13:07:38.191Z,5.23
2023-02-27T13:12:50.027Z,3.78
2023-02-27T13:17:58.611Z,3.58
2023-02-27T13:23:14.645Z,3.53
2023-02-27T13:28:21.817Z,4.27
2023-02-27T13:33:33.709Z,3.58
2023-02-27T13:38:43.467Z,3.13
2023-02-27T13:43:52.518Z,2.83
2023-02-27T13:48:55.998Z,4.07
2023-02-27T13:54:16.193Z,4.95
2023-02-27T13:59:24.372Z,4.97
2023-02-27T14:04:29.548Z,7.78
2023-02-27T14:09:36.954Z,4.68
2023-02-27T14:14:45.760Z,4.53
2023-02-27T14:19:56.899Z,3.90
2023-02-27T14:25:06.417Z,3.78
2023-02-27T14:30:27.182Z,5.32
2023-02-27T14:35:30.992Z,3.40
2023-02-27T14:40:39.962Z,5.35
2023-02-27T14:45:43.923Z,3.92
2023-02-27T14:50:46.556Z,3.80
2023-02-27T14:55:54.588Z,4.40
2023-02-27T15:01:09.707Z,5.00
2023-02-27T15:06:19.302Z,5.20
2023-02-27T15:11:23.991Z,6.47
2023-02-27T15:16:37.361Z,8.00
2023-02-27T15:21:42.076Z,5.38
2023-02-27T15:26:46.747Z,5.97
2023-02-27T15:31:50.933Z,6.85
2023-02-27T15:36:55.568Z,6.22
2023-02-27T15:42:01.991Z,4.60
2023-02-27T15:47:06.997Z,3.28
2023-02-27T15:52:16.303Z,4.60
2023-02-27T15:57:20.247Z,4.57
2023-02-27T16:02:28.353Z,4.93
2023-02-27T16:07:40.190Z,4.20
2023-02-27T16:12:42.950Z,7.68
2023-02-27T16:17:55.709Z,5.03
2023-02-27T16:23:05.742Z,4.03
2023-02-27T16:28:13.941Z,4.80
2023-02-27T16:33:23.331Z,6.33
2023-02-27T16:38:25.849Z,11.85
2023-02-27T16:43:28.486Z,10.23
2023-02-27T16:48:32.321Z,7.80
2023-02-27T16:53:34.816Z,8.43
2023-02-27T16:58:37.829Z,6.03
2023-02-27T17:03:41.817Z,7.53
2023-02-27T17:08:45.173Z,11.60
2023-02-27T17:13:47.677Z,9.85
2023-02-27T17:18:51.570Z,6.75
2023-02-27T17:23:54.543Z,6.30
2023-02-27T17:28:57.727Z,6.15
2023-02-27T17:34:03.502Z,6.70
2023-02-27T17:39:06.126Z,7.40
2023-02-27T17:44:10.272Z,10.53
2023-02-27T17:49:14.098Z,6.40
2023-02-27T17:54:16.593Z,9.55
2023-02-27T17:59:19.252Z,8.83
2023-02-27T18:04:23.086Z,11.32
2023-02-27T18:09:25.553Z,16.40
2023-02-27T18:14:28.136Z,9.40
2023-02-27T18:19:32.636Z,11.02
2023-02-27T18:24:35.329Z,16.08
2023-02-27T18:29:38.473Z,13.30
2023-02-27T18:34:43.375Z,15.53
2023-02-27T18:39:45.910Z,17.42
2023-02-27T18:44:48.565Z,14.93
2023-02-27T18:49:52.820Z,15.00
2023-02-27T18:54:55.493Z,17.30
2023-02-27T18:59:58.028Z,16.05
2023-02-27T19:05:03.020Z,17.80
2023-02-27T19:10:07.754Z,16.52
2023-02-27T19:15:11.914Z,16.50
2023-02-27T19:20:17.139Z,15.27
2023-02-27T19:25:19.755Z,16.73
2023-02-27T19:30:22.486Z,18.17
2023-02-27T19:35:26.460Z,16.15
2023-02-27T19:40:29.333Z,16.57
2023-02-27T19:45:32.837Z,19.35
2023-02-27T19:50:36.770Z,14.73
2023-02-27T19:55:39.273Z,11.63
2023-02-27T20:00:41.870Z,10.43
2023-02-27T20:05:46.295Z,10.43
2023-02-27T20:10:55.129Z,14.07
2023-02-27T20:15:58.682Z,13.07
2023-02-27T20:21:05.071Z,12.63
2023-02-27T20:26:15.392Z,12.77
2023-02-27T20:31:21.119Z,12.23
2023-02-27T20:36:25.187Z,11.80
2023-02-27T20:41:29.761Z,12.07
2023-02-27T20:46:32.492Z,12.13
2023-02-27T20:51:38.325Z,8.48
2023-02-27T20:56:42.180Z,10.93
2023-02-27T21:01:51.389Z,10.60
2023-02-27T21:06:55.755Z,10.33
2023-02-27T21:11:58.241Z,8.25
2023-02-27T21:17:00.785Z,8.73
2023-02-27T21:22:04.872Z,8.47
2023-02-27T21:27:07.706Z,7.72
2023-02-27T21:32:10.234Z,9.10
2023-02-27T21:37:14.088Z,9.10
2023-02-27T21:42:16.588Z,8.30
2023-02-27T21:47:20.657Z,9.48
2023-02-27T21:52:24.540Z,12.13
2023-02-27T21:57:27.205Z,12.47
2023-02-27T22:02:29.736Z,10.45
2023-02-27T22:07:33.593Z,11.43
2023-02-27T22:12:36.071Z,11.30
2023-02-27T22:17:38.595Z,9.60
2023-02-27T22:22:42.422Z,11.60
2023-02-27T22:27:44.915Z,14.43
2023-02-27T22:32:47.417Z,14.00
2023-02-27T22:37:51.431Z,13.40
2023-02-27T22:42:53.952Z,15.43
2023-02-27T22:47:56.433Z,12.33
2023-02-27T22:53:00.249Z,13.52
2023-02-27T22:58:02.785Z,12.27
2023-02-27T23:03:05.276Z,11.63
2023-02-27T23:08:09.233Z,11.00
2023-02-27T23:13:11.996Z,10.52
2023-02-27T23:18:14.777Z,9.90
2023-02-27T23:23:18.611Z,10.80
2023-02-27T23:28:21.180Z,13.57
2023-02-27T23:33:23.693Z,16.07
2023-02-27T23:38:28.505Z,12.03
2023-02-27T23:43:30.980Z,11.55
2023-02-27T23:48:33.598Z,11.48
2023-02-27T23:53:41.261Z,11.20
2023-02-27T23:58:43.918Z,10.75
